sensor_id;sensor_type;location;lat;lon;timestamp;pressure;altitude;pressure_sealevel;temperature;humidity
6032;BME280;3044;43.232;27.972;2022-07-03T00:02:21;45009.09;;;-143.84;40.46
6032;BME280;3044;43.232;27.972;2022-07-03T00:04:49;44980.53;;;-143.84;40.60
6032;BME280;3044;43.232;27.972;2022-07-03T00:07:16;44993.84;;;-143.84;41.05
6032;BME280;3044;43.232;27.972;2022-07-03T00:09:43;45012.88;;;-143.84;41.37
6032;BME280;3044;43.232;27.972;2022-07-03T00:12:11;45016.69;;;-143.84;41.37
6032;BME280;3044;43.232;27.972;2022-07-03T00:14:38;45007.19;;;-143.84;41.63
6032;BME280;3044;43.232;27.972;2022-07-03T00:17:05;45009.09;;;-143.84;41.94
6032;BME280;3044;43.232;27.972;2022-07-03T00:19:34;44997.66;;;-143.84;42.13
6032;BME280;3044;43.232;27.972;2022-07-03T00:22:03;44986.22;;;-143.84;42.05
6032;BME280;3044;43.232;27.972;2022-07-03T00:24:34;44976.72;;;-143.84;42.76
6032;BME280;3044;43.232;27.972;2022-07-03T00:27:06;45020.50;;;-143.84;43.80
6032;BME280;3044;43.232;27.972;2022-07-03T00:29:37;44993.84;;;-143.84;44.38
6032;BME280;3044;43.232;27.972;2022-07-03T00:32:06;44991.94;;;-143.84;45.19
6032;BME280;3044;43.232;27.972;2022-07-03T00:34:37;44999.56;;;-143.84;45.41
6032;BME280;3044;43.232;27.972;2022-07-03T00:37:05;45014.78;;;-143.84;46.52
6032;BME280;3044;43.232;27.972;2022-07-03T00:39:35;45003.38;;;-143.84;47.09
6032;BME280;3044;43.232;27.972;2022-07-03T00:42:05;45022.41;;;-143.84;48.33
6032;BME280;3044;43.232;27.972;2022-07-03T00:44:35;45001.47;;;-143.84;49.73
6032;BME280;3044;43.232;27.972;2022-07-03T00:47:04;44995.75;;;-143.84;51.13
6032;BME280;3044;43.232;27.972;2022-07-03T00:49:33;44990.03;;;-143.84;51.77
6032;BME280;3044;43.232;27.972;2022-07-03T00:52:05;45007.19;;;-143.84;52.71
6032;BME280;3044;43.232;27.972;2022-07-03T00:54:33;45007.19;;;-143.84;53.61
6032;BME280;3044;43.232;27.972;2022-07-03T00:57:02;45022.41;;;-143.84;55.49
6032;BME280;3044;43.232;27.972;2022-07-03T00:59:30;45005.28;;;-143.84;56.01
6032;BME280;3044;43.232;27.972;2022-07-03T01:02:03;44974.81;;;-143.84;58.74
6032;BME280;3044;43.232;27.972;2022-07-03T01:04:40;45010.97;;;-143.84;59.86
6032;BME280;3044;43.232;27.972;2022-07-03T01:07:20;45012.88;;;-143.84;59.80
6032;BME280;3044;43.232;27.972;2022-07-03T01:10:00;44999.56;;;-143.84;60.98
6032;BME280;3044;43.232;27.972;2022-07-03T01:12:38;44991.94;;;-143.84;61.84
6032;BME280;3044;43.232;27.972;2022-07-03T01:15:11;44976.72;;;-143.84;63.59
6032;BME280;3044;43.232;27.972;2022-07-03T01:17:39;45007.19;;;-143.84;64.08
6032;BME280;3044;43.232;27.972;2022-07-03T01:20:10;44980.53;;;-143.84;66.99
6032;BME280;3044;43.232;27.972;2022-07-03T01:22:43;45003.38;;;-143.84;66.73
6032;BME280;3044;43.232;27.972;2022-07-03T01:25:23;45007.19;;;-143.84;71.15
6032;BME280;3044;43.232;27.972;2022-07-03T01:27:58;45030.03;;;-143.84;73.24
6032;BME280;3044;43.232;27.972;2022-07-03T01:30:28;45018.59;;;-143.84;74.84
6032;BME280;3044;43.232;27.972;2022-07-03T01:33:01;45003.38;;;-143.84;76.75
6032;BME280;3044;43.232;27.972;2022-07-03T01:35:33;44995.75;;;-143.84;78.42
6032;BME280;3044;43.232;27.972;2022-07-03T01:38:03;45018.59;;;-143.84;79.58
6032;BME280;3044;43.232;27.972;2022-07-03T01:40:33;45033.84;;;-143.84;81.10
6032;BME280;3044;43.232;27.972;2022-07-03T01:43:04;44997.66;;;-143.84;81.90
6032;BME280;3044;43.232;27.972;2022-07-03T01:45:32;45016.69;;;-143.84;82.24
6032;BME280;3044;43.232;27.972;2022-07-03T01:48:03;45014.78;;;-143.84;82.84
6032;BME280;3044;43.232;27.972;2022-07-03T01:50:32;45007.19;;;-143.84;82.95
6032;BME280;3044;43.232;27.972;2022-07-03T01:53:01;45018.59;;;-143.84;83.09
6032;BME280;3044;43.232;27.972;2022-07-03T01:55:33;45018.59;;;-143.84;83.52
6032;BME280;3044;43.232;27.972;2022-07-03T01:58:01;45022.41;;;-143.84;84.00
6032;BME280;3044;43.232;27.972;2022-07-03T02:00:29;45003.38;;;-143.84;84.36
6032;BME280;3044;43.232;27.972;2022-07-03T02:02:59;45035.75;;;-143.84;84.74
6032;BME280;3044;43.232;27.972;2022-07-03T02:05:33;45007.19;;;-143.84;85.25
6032;BME280;3044;43.232;27.972;2022-07-03T02:08:15;45009.09;;;-143.84;85.61
6032;BME280;3044;43.232;27.972;2022-07-03T02:10:50;44988.13;;;-143.84;86.18
6032;BME280;3044;43.232;27.972;2022-07-03T02:13:23;45007.19;;;-143.84;86.15
6032;BME280;3044;43.232;27.972;2022-07-03T02:15:51;45022.41;;;-143.84;85.90
6032;BME280;3044;43.232;27.972;2022-07-03T02:18:27;45005.28;;;-143.84;85.87
6032;BME280;3044;43.232;27.972;2022-07-03T02:21:03;44990.03;;;-143.84;86.76
6032;BME280;3044;43.232;27.972;2022-07-03T02:23:31;44991.94;;;-143.84;87.32
6032;BME280;3044;43.232;27.972;2022-07-03T02:26:02;45010.97;;;-143.84;86.96
6032;BME280;3044;43.232;27.972;2022-07-03T02:28:45;45007.19;;;-143.84;87.60
6032;BME280;3044;43.232;27.972;2022-07-03T02:31:18;45033.84;;;-143.84;87.75
6032;BME280;3044;43.232;27.972;2022-07-03T02:33:49;44999.56;;;-143.84;88.14
6032;BME280;3044;43.232;27.972;2022-07-03T02:36:19;45010.97;;;-143.84;88.19
6032;BME280;3044;43.232;27.972;2022-07-03T02:38:53;45009.09;;;-143.84;88.29
6032;BME280;3044;43.232;27.972;2022-07-03T02:41:24;45018.59;;;-143.84;88.67
6032;BME280;3044;43.232;27.972;2022-07-03T02:43:59;44988.13;;;-143.84;88.93
6032;BME280;3044;43.232;27.972;2022-07-03T02:46:45;44997.66;;;-143.84;88.62
6032;BME280;3044;43.232;27.972;2022-07-03T02:49:25;45009.09;;;-143.84;88.76
6032;BME280;3044;43.232;27.972;2022-07-03T02:52:10;44991.94;;;-143.84;88.81
6032;BME280;3044;43.232;27.972;2022-07-03T02:54:43;45009.09;;;-143.84;88.56
6032;BME280;3044;43.232;27.972;2022-07-03T02:57:13;44976.72;;;-143.84;88.67
6032;BME280;3044;43.232;27.972;2022-07-03T02:59:54;45007.19;;;-143.84;88.87
6032;BME280;3044;43.232;27.972;2022-07-03T03:02:52;45003.38;;;-143.84;89.18
6032;BME280;3044;43.232;27.972;2022-07-03T03:05:26;45007.19;;;-143.84;88.93
6032;BME280;3044;43.232;27.972;2022-07-03T03:08:11;45043.34;;;-143.84;88.91
6032;BME280;3044;43.232;27.972;2022-07-03T03:10:40;45007.19;;;-143.84;89.29
6032;BME280;3044;43.232;27.972;2022-07-03T03:13:09;45031.94;;;-143.84;88.93
6032;BME280;3044;43.232;27.972;2022-07-03T03:15:38;44982.41;;;-143.84;88.62
6032;BME280;3044;43.232;27.972;2022-07-03T03:18:08;44995.75;;;-143.84;88.37
6032;BME280;3044;43.232;27.972;2022-07-03T03:20:38;44993.84;;;-143.84;88.72
6032;BME280;3044;43.232;27.972;2022-07-03T03:23:16;45016.69;;;-143.84;87.86
6032;BME280;3044;43.232;27.972;2022-07-03T03:25:45;45010.97;;;-143.84;88.11
6032;BME280;3044;43.232;27.972;2022-07-03T03:28:13;44990.03;;;-143.84;88.62
6032;BME280;3044;43.232;27.972;2022-07-03T03:30:42;45010.97;;;-143.84;88.21
6032;BME280;3044;43.232;27.972;2022-07-03T03:33:09;45005.28;;;-143.84;88.60
6032;BME280;3044;43.232;27.972;2022-07-03T03:35:38;44988.13;;;-143.84;88.83
6032;BME280;3044;43.232;27.972;2022-07-03T03:38:05;44984.31;;;-143.84;89.09
6032;BME280;3044;43.232;27.972;2022-07-03T03:40:33;44997.66;;;-143.84;89.55
6032;BME280;3044;43.232;27.972;2022-07-03T03:43:03;44982.41;;;-143.84;88.33
6032;BME280;3044;43.232;27.972;2022-07-03T03:45:31;45007.19;;;-143.84;85.65
6032;BME280;3044;43.232;27.972;2022-07-03T03:48:00;44969.09;;;-143.84;83.08
6032;BME280;3044;43.232;27.972;2022-07-03T03:50:28;44982.41;;;-143.84;79.85
6032;BME280;3044;43.232;27.972;2022-07-03T03:52:55;44955.75;;;-143.84;76.66
6032;BME280;3044;43.232;27.972;2022-07-03T03:55:22;44932.91;;;-143.84;74.00
6032;BME280;3044;43.232;27.972;2022-07-03T03:57:49;44929.09;;;-143.84;71.58
6032;BME280;3044;43.232;27.972;2022-07-03T04:00:16;44915.78;;;-143.84;69.45
6032;BME280;3044;43.232;27.972;2022-07-03T04:02:43;44953.88;;;-143.84;66.96
6032;BME280;3044;43.232;27.972;2022-07-03T04:05:12;44919.59;;;-143.84;65.52
6032;BME280;3044;43.232;27.972;2022-07-03T04:07:39;44929.09;;;-143.84;64.32
6032;BME280;3044;43.232;27.972;2022-07-03T04:10:07;44894.84;;;-143.84;62.78
6032;BME280;3044;43.232;27.972;2022-07-03T04:12:34;44911.97;;;-143.84;61.78
6032;BME280;3044;43.232;27.972;2022-07-03T04:15:01;44904.34;;;-143.84;60.34
6032;BME280;3044;43.232;27.972;2022-07-03T04:17:29;44885.31;;;-143.84;58.84
6032;BME280;3044;43.232;27.972;2022-07-03T04:19:56;44891.03;;;-143.84;58.58
6032;BME280;3044;43.232;27.972;2022-07-03T04:22:25;44887.22;;;-143.84;57.73
6032;BME280;3044;43.232;27.972;2022-07-03T04:24:52;44856.75;;;-143.84;56.52
6032;BME280;3044;43.232;27.972;2022-07-03T04:27:19;44885.31;;;-143.84;56.56
6032;BME280;3044;43.232;27.972;2022-07-03T04:29:47;44892.94;;;-143.84;56.50
6032;BME280;3044;43.232;27.972;2022-07-03T04:32:14;44864.38;;;-143.84;54.76
6032;BME280;3044;43.232;27.972;2022-07-03T04:34:41;44856.75;;;-143.84;54.01
6032;BME280;3044;43.232;27.972;2022-07-03T04:37:08;44889.13;;;-143.84;53.92
6032;BME280;3044;43.232;27.972;2022-07-03T04:39:37;44898.66;;;-143.84;53.33
6032;BME280;3044;43.232;27.972;2022-07-03T04:42:04;44885.31;;;-143.84;53.37
6032;BME280;3044;43.232;27.972;2022-07-03T04:44:31;44852.94;;;-143.84;52.40
6032;BME280;3044;43.232;27.972;2022-07-03T04:46:58;44877.69;;;-143.84;51.23
6032;BME280;3044;43.232;27.972;2022-07-03T04:49:26;44879.59;;;-143.84;50.33
6032;BME280;3044;43.232;27.972;2022-07-03T04:51:53;44871.97;;;-143.84;50.26
6032;BME280;3044;43.232;27.972;2022-07-03T04:54:22;44891.03;;;-143.84;47.49
6032;BME280;3044;43.232;27.972;2022-07-03T04:56:50;44894.84;;;-143.84;45.02
6032;BME280;3044;43.232;27.972;2022-07-03T04:59:17;44849.13;;;-143.84;45.77
6032;BME280;3044;43.232;27.972;2022-07-03T05:01:44;44879.59;;;-143.84;45.39
6032;BME280;3044;43.232;27.972;2022-07-03T05:04:13;44868.19;;;-143.84;46.90
6032;BME280;3044;43.232;27.972;2022-07-03T05:06:40;44849.13;;;-143.84;46.77
6032;BME280;3044;43.232;27.972;2022-07-03T05:09:07;44843.44;;;-143.84;46.66
6032;BME280;3044;43.232;27.972;2022-07-03T05:11:35;44860.56;;;-143.84;46.29
6032;BME280;3044;43.232;27.972;2022-07-03T05:14:04;44860.56;;;-143.84;44.05
6032;BME280;3044;43.232;27.972;2022-07-03T05:16:31;44851.03;;;-143.84;42.70
6032;BME280;3044;43.232;27.972;2022-07-03T05:18:59;44849.13;;;-143.84;42.39
6032;BME280;3044;43.232;27.972;2022-07-03T05:21:26;44870.09;;;-143.84;40.74
6032;BME280;3044;43.232;27.972;2022-07-03T05:23:53;44858.66;;;-143.84;42.97
6032;BME280;3044;43.232;27.972;2022-07-03T05:26:20;44854.84;;;-143.84;43.35
6032;BME280;3044;43.232;27.972;2022-07-03T05:28:47;44856.75;;;-143.84;42.11
6032;BME280;3044;43.232;27.972;2022-07-03T05:31:16;44879.59;;;-143.84;41.82
6032;BME280;3044;43.232;27.972;2022-07-03T05:33:43;44841.53;;;-143.84;42.08
6032;BME280;3044;43.232;27.972;2022-07-03T05:36:10;44852.94;;;-143.84;40.60
6032;BME280;3044;43.232;27.972;2022-07-03T05:38:37;44849.13;;;-143.84;38.61
6032;BME280;3044;43.232;27.972;2022-07-03T05:41:22;44858.66;;;-143.84;40.85
6032;BME280;3044;43.232;27.972;2022-07-03T05:43:49;44873.88;;;-143.84;42.20
6032;BME280;3044;43.232;27.972;2022-07-03T05:46:17;44854.84;;;-143.84;40.92
6032;BME280;3044;43.232;27.972;2022-07-03T05:48:45;44843.44;;;-143.84;41.74
6032;BME280;3044;43.232;27.972;2022-07-03T05:51:12;44852.94;;;-143.84;40.62
6032;BME280;3044;43.232;27.972;2022-07-03T05:53:39;44866.28;;;-143.84;41.62
6032;BME280;3044;43.232;27.972;2022-07-03T05:56:06;44812.97;;;-143.84;39.65
6032;BME280;3044;43.232;27.972;2022-07-03T05:58:33;44843.44;;;-143.84;38.20
6032;BME280;3044;43.232;27.972;2022-07-03T06:01:00;44811.06;;;-143.84;39.32
6032;BME280;3044;43.232;27.972;2022-07-03T06:03:29;44843.44;;;-143.84;37.53
6032;BME280;3044;43.232;27.972;2022-07-03T06:05:56;44843.44;;;-143.84;36.82
6032;BME280;3044;43.232;27.972;2022-07-03T06:08:25;44835.81;;;-143.84;38.86
6032;BME280;3044;43.232;27.972;2022-07-03T06:10:52;44854.84;;;-143.84;39.16
6032;BME280;3044;43.232;27.972;2022-07-03T06:13:20;44828.19;;;-143.84;36.43
6032;BME280;3044;43.232;27.972;2022-07-03T06:15:47;44856.75;;;-143.84;35.99
6032;BME280;3044;43.232;27.972;2022-07-03T06:18:14;44847.22;;;-143.84;36.88
6032;BME280;3044;43.232;27.972;2022-07-03T06:20:42;44809.16;;;-143.84;36.47
6032;BME280;3044;43.232;27.972;2022-07-03T06:23:09;44833.91;;;-143.84;36.86
6032;BME280;3044;43.232;27.972;2022-07-03T06:25:36;44811.06;;;-143.84;36.41
6032;BME280;3044;43.232;27.972;2022-07-03T06:28:04;44824.38;;;-143.84;35.02
6032;BME280;3044;43.232;27.972;2022-07-03T06:30:31;44797.72;;;-143.84;33.76
6032;BME280;3044;43.232;27.972;2022-07-03T06:32:58;44782.50;;;-143.84;35.66
6032;BME280;3044;43.232;27.972;2022-07-03T06:35:25;44790.13;;;-143.84;35.15
6032;BME280;3044;43.232;27.972;2022-07-03T06:37:54;44826.28;;;-143.84;35.47
6032;BME280;3044;43.232;27.972;2022-07-03T06:40:21;44839.63;;;-143.84;36.69
6032;BME280;3044;43.232;27.972;2022-07-03T06:42:48;44809.16;;;-143.84;37.33
6032;BME280;3044;43.232;27.972;2022-07-03T06:45:15;44822.47;;;-143.84;37.30
6032;BME280;3044;43.232;27.972;2022-07-03T06:47:42;44833.91;;;-143.84;35.75
6032;BME280;3044;43.232;27.972;2022-07-03T06:50:09;44826.28;;;-143.84;36.41
6032;BME280;3044;43.232;27.972;2022-07-03T06:52:36;44778.69;;;-143.84;36.21
6032;BME280;3044;43.232;27.972;2022-07-03T06:55:06;44805.34;;;-143.84;37.18
6032;BME280;3044;43.232;27.972;2022-07-03T06:57:33;44788.22;;;-143.84;37.86
6032;BME280;3044;43.232;27.972;2022-07-03T07:00:01;44792.00;;;-143.84;37.85
6032;BME280;3044;43.232;27.972;2022-07-03T07:02:28;44792.00;;;-143.84;37.10
6032;BME280;3044;43.232;27.972;2022-07-03T07:04:55;44803.44;;;-143.84;38.59
6032;BME280;3044;43.232;27.972;2022-07-03T07:07:22;44841.53;;;-143.84;38.38
6032;BME280;3044;43.232;27.972;2022-07-03T07:09:49;44803.44;;;-143.84;37.37
6032;BME280;3044;43.232;27.972;2022-07-03T07:12:17;44795.81;;;-143.84;33.63
6032;BME280;3044;43.232;27.972;2022-07-03T07:14:45;44826.28;;;-143.84;36.87
6032;BME280;3044;43.232;27.972;2022-07-03T07:17:12;44822.47;;;-143.84;35.42
6032;BME280;3044;43.232;27.972;2022-07-03T07:19:39;44830.09;;;-143.84;33.80
6032;BME280;3044;43.232;27.972;2022-07-03T07:22:06;44809.16;;;-143.84;34.31
6032;BME280;3044;43.232;27.972;2022-07-03T07:24:33;44799.63;;;-143.84;35.55
6032;BME280;3044;43.232;27.972;2022-07-03T07:27:01;44786.31;;;-143.84;33.94
6032;BME280;3044;43.232;27.972;2022-07-03T07:29:29;44839.63;;;-143.84;34.64
6032;BME280;3044;43.232;27.972;2022-07-03T07:31:56;44792.00;;;-143.84;36.62
6032;BME280;3044;43.232;27.972;2022-07-03T07:34:23;44807.25;;;-143.84;36.61
6032;BME280;3044;43.232;27.972;2022-07-03T07:36:50;44833.91;;;-143.84;37.43
6032;BME280;3044;43.232;27.972;2022-07-03T07:39:18;44824.38;;;-143.84;35.63
6032;BME280;3044;43.232;27.972;2022-07-03T07:41:45;44818.66;;;-143.84;35.37
6032;BME280;3044;43.232;27.972;2022-07-03T07:44:12;44837.72;;;-143.84;34.75
6032;BME280;3044;43.232;27.972;2022-07-03T07:46:41;44772.97;;;-143.84;36.47
6032;BME280;3044;43.232;27.972;2022-07-03T07:49:08;44837.72;;;-143.84;36.88
6032;BME280;3044;43.232;27.972;2022-07-03T07:51:35;44801.53;;;-143.84;36.48
6032;BME280;3044;43.232;27.972;2022-07-03T07:54:02;44824.38;;;-143.84;37.33
6032;BME280;3044;43.232;27.972;2022-07-03T07:56:29;44828.19;;;-143.84;37.29
6032;BME280;3044;43.232;27.972;2022-07-03T07:58:56;44776.78;;;-143.84;38.12
6032;BME280;3044;43.232;27.972;2022-07-03T08:01:24;44805.34;;;-143.84;38.04
6032;BME280;3044;43.232;27.972;2022-07-03T08:04:10;44843.44;;;-143.84;38.90
6032;BME280;3044;43.232;27.972;2022-07-03T08:06:54;44826.28;;;-143.84;39.04
6032;BME280;3044;43.232;27.972;2022-07-03T08:09:21;44833.91;;;-143.84;39.54
6032;BME280;3044;43.232;27.972;2022-07-03T08:11:48;44820.56;;;-143.84;38.26
6032;BME280;3044;43.232;27.972;2022-07-03T08:14:16;44826.28;;;-143.84;38.09
6032;BME280;3044;43.232;27.972;2022-07-03T08:16:43;44833.91;;;-143.84;37.74
6032;BME280;3044;43.232;27.972;2022-07-03T08:19:13;44830.09;;;-143.84;36.35
6032;BME280;3044;43.232;27.972;2022-07-03T08:21:41;44786.31;;;-143.84;38.92
6032;BME280;3044;43.232;27.972;2022-07-03T08:24:08;44837.72;;;-143.84;39.00
6032;BME280;3044;43.232;27.972;2022-07-03T08:26:36;44847.22;;;-143.84;39.25
6032;BME280;3044;43.232;27.972;2022-07-03T08:29:04;44854.84;;;-143.84;37.24
6032;BME280;3044;43.232;27.972;2022-07-03T08:31:31;44864.38;;;-143.84;37.78
6032;BME280;3044;43.232;27.972;2022-07-03T08:33:58;44809.16;;;-143.84;37.23
6032;BME280;3044;43.232;27.972;2022-07-03T08:36:27;44868.19;;;-143.84;37.64
6032;BME280;3044;43.232;27.972;2022-07-03T08:38:54;44780.59;;;-143.84;38.37
6032;BME280;3044;43.232;27.972;2022-07-03T08:41:22;44833.91;;;-143.84;38.36
6032;BME280;3044;43.232;27.972;2022-07-03T08:43:50;44818.66;;;-143.84;36.61
6032;BME280;3044;43.232;27.972;2022-07-03T08:46:19;44820.56;;;-143.84;38.12
6032;BME280;3044;43.232;27.972;2022-07-03T08:48:47;44843.44;;;-143.84;37.17
6032;BME280;3044;43.232;27.972;2022-07-03T08:51:16;44873.88;;;-143.84;34.29
6032;BME280;3044;43.232;27.972;2022-07-03T08:53:47;44833.91;;;-143.84;34.28
6032;BME280;3044;43.232;27.972;2022-07-03T08:56:15;44854.84;;;-143.84;36.30
6032;BME280;3044;43.232;27.972;2022-07-03T08:58:42;44858.66;;;-143.84;35.67
6032;BME280;3044;43.232;27.972;2022-07-03T09:01:10;44835.81;;;-143.84;35.96
6032;BME280;3044;43.232;27.972;2022-07-03T09:03:42;44845.31;;;-143.84;35.99
6032;BME280;3044;43.232;27.972;2022-07-03T09:06:11;44822.47;;;-143.84;36.08
6032;BME280;3044;43.232;27.972;2022-07-03T09:08:40;44860.56;;;-143.84;34.29
6032;BME280;3044;43.232;27.972;2022-07-03T09:11:10;44837.72;;;-143.84;34.85
6032;BME280;3044;43.232;27.972;2022-07-03T09:13:37;44824.38;;;-143.84;34.94
6032;BME280;3044;43.232;27.972;2022-07-03T09:16:05;44820.56;;;-143.84;34.85
6032;BME280;3044;43.232;27.972;2022-07-03T09:18:41;44812.97;;;-143.84;32.69
6032;BME280;3044;43.232;27.972;2022-07-03T09:21:09;44843.44;;;-143.84;32.39
6032;BME280;3044;43.232;27.972;2022-07-03T09:23:37;44803.44;;;-143.84;32.66
6032;BME280;3044;43.232;27.972;2022-07-03T09:26:05;44841.53;;;-143.84;33.43
6032;BME280;3044;43.232;27.972;2022-07-03T09:28:44;44826.28;;;-143.84;32.59
6032;BME280;3044;43.232;27.972;2022-07-03T09:31:12;44809.16;;;-143.84;30.06
6032;BME280;3044;43.232;27.972;2022-07-03T09:33:51;44835.81;;;-143.84;30.70
6032;BME280;3044;43.232;27.972;2022-07-03T09:36:21;44826.28;;;-143.84;31.21
6032;BME280;3044;43.232;27.972;2022-07-03T09:38:49;44797.72;;;-143.84;30.86
6032;BME280;3044;43.232;27.972;2022-07-03T09:41:16;44847.22;;;-143.84;31.46
6032;BME280;3044;43.232;27.972;2022-07-03T09:43:45;44816.78;;;-143.84;30.52
6032;BME280;3044;43.232;27.972;2022-07-03T09:46:12;44820.56;;;-143.84;31.00
6032;BME280;3044;43.232;27.972;2022-07-03T09:48:40;44849.13;;;-143.84;29.87
6032;BME280;3044;43.232;27.972;2022-07-03T09:51:12;44830.09;;;-143.84;31.46
6032;BME280;3044;43.232;27.972;2022-07-03T09:53:48;44784.41;;;-143.84;30.47
6032;BME280;3044;43.232;27.972;2022-07-03T09:56:16;44828.19;;;-143.84;30.74
6032;BME280;3044;43.232;27.972;2022-07-03T09:59:13;44862.47;;;-143.84;30.66
6032;BME280;3044;43.232;27.972;2022-07-03T10:01:42;44807.25;;;-143.84;30.64
6032;BME280;3044;43.232;27.972;2022-07-03T10:04:11;44845.31;;;-143.84;31.29
6032;BME280;3044;43.232;27.972;2022-07-03T10:06:46;44843.44;;;-143.84;30.86
6032;BME280;3044;43.232;27.972;2022-07-03T10:09:15;44826.28;;;-143.84;30.46
6032;BME280;3044;43.232;27.972;2022-07-03T10:11:44;44833.91;;;-143.84;31.05
6032;BME280;3044;43.232;27.972;2022-07-03T10:14:15;44835.81;;;-143.84;30.75
6032;BME280;3044;43.232;27.972;2022-07-03T10:16:42;44803.44;;;-143.84;31.98
6032;BME280;3044;43.232;27.972;2022-07-03T10:19:13;44832.00;;;-143.84;30.67
6032;BME280;3044;43.232;27.972;2022-07-03T10:21:42;44824.38;;;-143.84;32.19
6032;BME280;3044;43.232;27.972;2022-07-03T10:24:11;44818.66;;;-143.84;30.74
6032;BME280;3044;43.232;27.972;2022-07-03T10:26:39;44820.56;;;-143.84;31.73
6032;BME280;3044;43.232;27.972;2022-07-03T10:29:09;44856.75;;;-143.84;31.83
6032;BME280;3044;43.232;27.972;2022-07-03T10:31:44;44841.53;;;-143.84;30.43
6032;BME280;3044;43.232;27.972;2022-07-03T10:34:16;44835.81;;;-143.84;30.67
6032;BME280;3044;43.232;27.972;2022-07-03T10:36:43;44795.81;;;-143.84;30.11
6032;BME280;3044;43.232;27.972;2022-07-03T10:39:18;44811.06;;;-143.84;30.20
6032;BME280;3044;43.232;27.972;2022-07-03T10:41:50;44788.22;;;-143.84;29.07
6032;BME280;3044;43.232;27.972;2022-07-03T10:44:52;44822.47;;;-143.84;30.01
6032;BME280;3044;43.232;27.972;2022-07-03T10:47:43;44839.63;;;-143.84;31.38
6032;BME280;3044;43.232;27.972;2022-07-03T10:50:12;44803.44;;;-143.84;28.93
6032;BME280;3044;43.232;27.972;2022-07-03T10:52:40;44841.53;;;-143.84;28.80
6032;BME280;3044;43.232;27.972;2022-07-03T10:55:08;44826.28;;;-143.84;28.39
6032;BME280;3044;43.232;27.972;2022-07-03T10:57:36;44830.09;;;-143.84;27.73
6032;BME280;3044;43.232;27.972;2022-07-03T11:00:15;44832.00;;;-143.84;28.88
6032;BME280;3044;43.232;27.972;2022-07-03T11:02:48;44792.00;;;-143.84;28.01
6032;BME280;3044;43.232;27.972;2022-07-03T11:05:23;44822.47;;;-143.84;27.43
6032;BME280;3044;43.232;27.972;2022-07-03T11:08:18;44856.75;;;-143.84;29.30
6032;BME280;3044;43.232;27.972;2022-07-03T11:10:45;44805.34;;;-143.84;29.58
6032;BME280;3044;43.232;27.972;2022-07-03T11:13:32;44847.22;;;-143.84;29.03
6032;BME280;3044;43.232;27.972;2022-07-03T11:15:59;44839.63;;;-143.84;29.92
6032;BME280;3044;43.232;27.972;2022-07-03T11:18:30;44854.84;;;-143.84;30.39
6032;BME280;3044;43.232;27.972;2022-07-03T11:21:20;44843.44;;;-143.84;31.08
6032;BME280;3044;43.232;27.972;2022-07-03T11:24:26;44835.81;;;-143.84;31.75
6032;BME280;3044;43.232;27.972;2022-07-03T11:27:24;44845.31;;;-143.84;30.55
6032;BME280;3044;43.232;27.972;2022-07-03T11:29:57;44851.03;;;-143.84;28.65
6032;BME280;3044;43.232;27.972;2022-07-03T11:32:53;44832.00;;;-143.84;31.73
6032;BME280;3044;43.232;27.972;2022-07-03T11:35:46;44875.78;;;-143.84;31.58
6032;BME280;3044;43.232;27.972;2022-07-03T11:38:15;44849.13;;;-143.84;30.66
6032;BME280;3044;43.232;27.972;2022-07-03T11:40:43;44849.13;;;-143.84;28.31
6032;BME280;3044;43.232;27.972;2022-07-03T11:43:12;44871.97;;;-143.84;31.24
6032;BME280;3044;43.232;27.972;2022-07-03T11:45:39;44845.31;;;-143.84;29.58
6032;BME280;3044;43.232;27.972;2022-07-03T11:48:09;44881.50;;;-143.84;29.92
6032;BME280;3044;43.232;27.972;2022-07-03T11:50:38;44860.56;;;-143.84;29.82
6032;BME280;3044;43.232;27.972;2022-07-03T11:53:24;44873.88;;;-143.84;30.20
6032;BME280;3044;43.232;27.972;2022-07-03T11:55:54;44851.03;;;-143.84;28.61
6032;BME280;3044;43.232;27.972;2022-07-03T11:58:22;44860.56;;;-143.84;29.34
6032;BME280;3044;43.232;27.972;2022-07-03T12:00:50;44845.31;;;-143.84;27.66
6032;BME280;3044;43.232;27.972;2022-07-03T12:03:23;44839.63;;;-143.84;29.16
6032;BME280;3044;43.232;27.972;2022-07-03T12:05:54;44849.13;;;-143.84;30.08
6032;BME280;3044;43.232;27.972;2022-07-03T12:08:25;44841.53;;;-143.84;30.25
6032;BME280;3044;43.232;27.972;2022-07-03T12:10:57;44858.66;;;-143.84;29.02
6032;BME280;3044;43.232;27.972;2022-07-03T12:13:24;44858.66;;;-143.84;31.00
6032;BME280;3044;43.232;27.972;2022-07-03T12:15:52;44879.59;;;-143.84;32.77
6032;BME280;3044;43.232;27.972;2022-07-03T12:18:19;44852.94;;;-143.84;32.10
6032;BME280;3044;43.232;27.972;2022-07-03T12:20:46;44849.13;;;-143.84;30.94
6032;BME280;3044;43.232;27.972;2022-07-03T12:23:13;44862.47;;;-143.84;31.07
6032;BME280;3044;43.232;27.972;2022-07-03T12:25:42;44860.56;;;-143.84;30.72
6032;BME280;3044;43.232;27.972;2022-07-03T12:28:10;44843.44;;;-143.84;26.82
6032;BME280;3044;43.232;27.972;2022-07-03T12:30:38;44856.75;;;-143.84;29.58
6032;BME280;3044;43.232;27.972;2022-07-03T12:33:06;44845.31;;;-143.84;28.87
6032;BME280;3044;43.232;27.972;2022-07-03T12:35:34;44870.09;;;-143.84;30.89
6032;BME280;3044;43.232;27.972;2022-07-03T12:38:01;44870.09;;;-143.84;30.06
6032;BME280;3044;43.232;27.972;2022-07-03T12:40:28;44862.47;;;-143.84;31.28
6032;BME280;3044;43.232;27.972;2022-07-03T12:42:57;44868.19;;;-143.84;30.61
6032;BME280;3044;43.232;27.972;2022-07-03T12:45:25;44851.03;;;-143.84;30.18
6032;BME280;3044;43.232;27.972;2022-07-03T12:48:00;44858.66;;;-143.84;30.81
6032;BME280;3044;43.232;27.972;2022-07-03T12:50:43;44877.69;;;-143.84;29.26
6032;BME280;3044;43.232;27.972;2022-07-03T12:53:10;44877.69;;;-143.84;29.53
6032;BME280;3044;43.232;27.972;2022-07-03T12:55:44;44852.94;;;-143.84;31.66
6032;BME280;3044;43.232;27.972;2022-07-03T12:58:14;44851.03;;;-143.84;31.87
6032;BME280;3044;43.232;27.972;2022-07-03T13:00:59;44871.97;;;-143.84;30.96
6032;BME280;3044;43.232;27.972;2022-07-03T13:03:28;44868.19;;;-143.84;31.49
6032;BME280;3044;43.232;27.972;2022-07-03T13:05:55;44873.88;;;-143.84;31.32
6032;BME280;3044;43.232;27.972;2022-07-03T13:08:23;44875.78;;;-143.84;31.52